createdAt,value
2022-10-21T00:01:15.956Z,6.80
2022-10-21T00:03:49.526Z,7.20
2022-10-21T00:06:24.471Z,7.23
2022-10-21T00:08:57.129Z,7.13
2022-10-21T00:11:29.978Z,7.33
2022-10-21T00:14:03.177Z,8.27
2022-10-21T00:16:36.216Z,7.37
2022-10-21T00:19:14.998Z,7.57
2022-10-21T00:21:49.032Z,7.50
2022-10-21T00:24:27.827Z,6.73
2022-10-21T00:27:04.736Z,6.90
2022-10-21T00:29:39.502Z,7.27
2022-10-21T00:32:12.520Z,7.20
2022-10-21T00:34:45.230Z,7.07
2022-10-21T00:37:19.245Z,7.17
2022-10-21T00:39:52.327Z,6.97
2022-10-21T00:42:32.994Z,7.20
2022-10-21T00:45:19.399Z,7.33
2022-10-21T00:47:57.287Z,7.37
2022-10-21T00:50:40.180Z,6.90
2022-10-21T00:53:16.903Z,8.17
2022-10-21T00:55:51.569Z,7.90
2022-10-21T00:58:26.377Z,7.60
2022-10-21T01:01:00.228Z,7.87
2022-10-21T01:03:36.551Z,7.87
2022-10-21T01:06:14.042Z,8.40
2022-10-21T01:08:48.201Z,7.90
2022-10-21T01:11:21.108Z,8.67
2022-10-21T01:14:06.060Z,7.80
2022-10-21T01:16:47.361Z,7.77
2022-10-21T01:19:40.958Z,8.20
2022-10-21T01:22:19.279Z,8.17
2022-10-21T01:25:04.286Z,8.13
2022-10-21T01:27:42.900Z,8.27
2022-10-21T01:30:19.097Z,6.93
2022-10-21T01:33:15.298Z,7.80
2022-10-21T01:35:49.937Z,8.00
2022-10-21T01:38:25.584Z,7.63
2022-10-21T01:41:05.341Z,7.37
2022-10-21T01:43:40.314Z,8.23
2022-10-21T01:46:14.262Z,7.47
2022-10-21T01:48:51.033Z,7.80
2022-10-21T01:54:06.002Z,8.83
2022-10-21T01:56:40.019Z,8.10
2022-10-21T01:59:14.274Z,8.57
2022-10-21T02:01:49.981Z,8.63
2022-10-21T02:04:24.345Z,8.87
2022-10-21T02:07:00.112Z,7.90
2022-10-21T02:09:35.690Z,8.63
2022-10-21T02:12:08.700Z,8.77
2022-10-21T02:14:46.052Z,8.77
2022-10-21T02:17:19.985Z,8.00
2022-10-21T02:19:55.660Z,7.63
2022-10-21T02:22:29.474Z,8.47
2022-10-21T02:25:06.657Z,8.63
2022-10-21T02:27:39.448Z,8.30
2022-10-21T02:30:12.164Z,8.80
2022-10-21T02:32:49.896Z,7.97
2022-10-21T02:35:34.978Z,8.80
2022-10-21T02:38:18.469Z,8.50
2022-10-21T02:40:52.124Z,7.93
2022-10-21T02:43:27.291Z,8.83
2022-10-21T02:46:03.480Z,9.00
2022-10-21T02:48:38.606Z,8.53
2022-10-21T02:51:12.822Z,8.37
2022-10-21T02:53:45.619Z,8.33
2022-10-21T02:56:18.264Z,8.73
2022-10-21T02:58:50.788Z,9.10
2022-10-21T03:01:23.594Z,8.50
2022-10-21T03:03:56.319Z,8.47
2022-10-21T03:06:30.335Z,8.00
2022-10-21T03:09:03.367Z,8.47
2022-10-21T03:11:36.046Z,8.97
2022-10-21T03:14:08.737Z,8.37
2022-10-21T03:16:41.509Z,8.23
2022-10-21T03:19:14.299Z,9.30
2022-10-21T03:21:48.367Z,9.03
2022-10-21T03:24:28.498Z,8.80
2022-10-21T03:27:01.762Z,8.27
2022-10-21T03:29:34.363Z,8.27
2022-10-21T03:32:09.755Z,9.30
2022-10-21T03:34:42.439Z,9.63
2022-10-21T03:37:16.524Z,9.10
2022-10-21T03:39:49.172Z,9.17
2022-10-21T03:42:24.592Z,9.80
2022-10-21T03:44:57.266Z,9.37
2022-10-21T03:47:29.954Z,9.13
2022-10-21T03:50:04.586Z,9.27
2022-10-21T03:52:40.939Z,9.40
2022-10-21T03:55:13.934Z,9.47
2022-10-21T03:57:46.567Z,9.43
2022-10-21T04:00:19.523Z,9.97
2022-10-21T04:02:54.324Z,9.10
2022-10-21T04:05:27.059Z,10.10
2022-10-21T04:08:01.010Z,9.20
2022-10-21T04:10:33.650Z,10.00
2022-10-21T04:13:06.268Z,9.63
2022-10-21T04:15:41.429Z,8.93
2022-10-21T04:18:14.064Z,9.80
2022-10-21T04:20:46.702Z,10.13
2022-10-21T04:23:20.691Z,9.97
2022-10-21T04:25:53.401Z,9.60
2022-10-21T04:28:26.235Z,10.10
2022-10-21T04:30:58.940Z,10.10
2022-10-21T04:33:31.715Z,10.40
2022-10-21T04:36:04.534Z,9.97
2022-10-21T04:38:38.702Z,10.37
2022-10-21T04:41:11.297Z,9.57
2022-10-21T04:43:44.088Z,10.17
2022-10-21T04:46:17.172Z,10.30
2022-10-21T04:48:49.773Z,9.27
2022-10-21T04:51:22.624Z,9.50
2022-10-21T04:53:56.630Z,10.10
2022-10-21T04:56:29.257Z,9.57
2022-10-21T04:59:01.826Z,10.33
2022-10-21T05:01:34.644Z,10.60
2022-10-21T05:04:07.368Z,11.03
2022-10-21T05:06:40.064Z,10.13
2022-10-21T05:09:14.147Z,10.53
2022-10-21T05:11:46.969Z,10.57
2022-10-21T05:14:22.831Z,10.60
2022-10-21T05:16:56.070Z,10.50
2022-10-21T05:19:31.279Z,10.50
2022-10-21T05:22:04.454Z,10.33
2022-10-21T05:24:38.537Z,10.37
2022-10-21T05:27:14.368Z,10.63
2022-10-21T05:29:46.956Z,10.20
2022-10-21T05:32:21.693Z,11.67
2022-10-21T05:34:57.224Z,10.97
2022-10-21T05:37:32.602Z,10.93
2022-10-21T05:40:08.518Z,10.27
2022-10-21T05:42:41.312Z,10.10
2022-10-21T05:45:14.085Z,11.23
2022-10-21T05:47:46.965Z,10.77
2022-10-21T05:50:19.588Z,10.43
2022-10-21T05:52:53.147Z,11.23
2022-10-21T05:55:28.765Z,10.47
2022-10-21T05:58:01.648Z,10.93
2022-10-21T06:00:37.658Z,10.57
2022-10-21T06:03:10.561Z,10.73
2022-10-21T06:05:43.175Z,9.97
2022-10-21T06:08:16.055Z,10.30
2022-10-21T06:10:50.075Z,10.13
2022-10-21T06:13:22.690Z,9.93
2022-10-21T06:15:55.433Z,10.33
2022-10-21T06:18:30.625Z,9.70
2022-10-21T06:21:03.367Z,10.33
2022-10-21T06:23:36.096Z,10.70
2022-10-21T06:26:11.811Z,10.80
2022-10-21T06:28:44.913Z,10.80
2022-10-21T06:31:18.353Z,9.90
2022-10-21T06:33:51.112Z,10.10
2022-10-21T06:36:23.769Z,10.37
2022-10-21T06:38:59.540Z,11.50
2022-10-21T06:41:33.703Z,11.10
2022-10-21T06:44:06.514Z,10.67
2022-10-21T06:46:39.143Z,11.90
2022-10-21T06:49:12.109Z,12.00
2022-10-21T06:51:44.816Z,11.37
2022-10-21T06:54:17.492Z,11.63
2022-10-21T06:56:51.881Z,11.23
2022-10-21T06:59:24.958Z,11.33
2022-10-21T07:02:01.335Z,12.17
2022-10-21T07:04:34.272Z,11.43
2022-10-21T07:07:06.929Z,10.97
2022-10-21T07:09:39.837Z,11.90
2022-10-21T07:12:14.028Z,12.37
2022-10-21T07:14:46.584Z,11.40
2022-10-21T07:17:25.071Z,11.43
2022-10-21T07:19:57.732Z,11.13
2022-10-21T07:22:31.860Z,11.57
2022-10-21T07:25:04.704Z,10.73
2022-10-21T07:27:39.143Z,11.63
2022-10-21T07:30:16.192Z,11.53
2022-10-21T07:32:48.803Z,11.07
2022-10-21T07:35:21.629Z,10.77
2022-10-21T07:37:54.239Z,11.37
2022-10-21T07:40:28.353Z,10.20
2022-10-21T07:43:02.525Z,10.87
2022-10-21T07:45:35.670Z,11.53
2022-10-21T07:48:08.261Z,11.30
2022-10-21T07:50:41.032Z,11.40
2022-10-21T07:53:15.673Z,10.97
2022-10-21T07:55:48.536Z,11.07
2022-10-21T07:58:22.581Z,10.67
2022-10-21T08:00:58.259Z,10.70
2022-10-21T08:03:31.035Z,10.47
2022-10-21T08:06:04.646Z,10.70
2022-10-21T08:08:37.666Z,24.13
2022-10-21T08:11:10.582Z,14.03
2022-10-21T08:13:45.919Z,14.93
2022-10-21T08:16:21.583Z,11.57
2022-10-21T08:18:57.132Z,11.17
2022-10-21T08:21:31.761Z,11.43
2022-10-21T08:24:04.881Z,10.43
2022-10-21T08:26:37.587Z,9.87
2022-10-21T08:29:11.609Z,10.70
2022-10-21T08:31:44.791Z,10.37
2022-10-21T08:34:17.589Z,10.10
2022-10-21T08:36:50.315Z,11.47
2022-10-21T08:39:24.954Z,11.80
2022-10-21T08:42:02.800Z,10.00
2022-10-21T08:44:45.826Z,10.97
2022-10-21T08:47:21.250Z,11.17
2022-10-21T08:49:59.659Z,10.53
2022-10-21T08:52:39.113Z,8.90
2022-10-21T08:55:17.797Z,10.27
2022-10-21T08:57:51.358Z,10.90
2022-10-21T09:00:26.409Z,10.60
2022-10-21T09:03:02.623Z,11.60
2022-10-21T09:05:54.214Z,12.73
2022-10-21T09:08:30.965Z,12.13
2022-10-21T09:11:07.386Z,10.97
2022-10-21T09:13:53.830Z,10.87
2022-10-21T09:16:30.275Z,11.63
2022-10-21T09:19:05.597Z,16.63
2022-10-21T09:21:44.887Z,11.50
2022-10-21T09:24:20.376Z,10.13
2022-10-21T09:26:53.776Z,10.40
2022-10-21T09:29:30.546Z,10.37
2022-10-21T09:32:11.673Z,10.80
2022-10-21T09:34:50.012Z,11.90
2022-10-21T09:37:34.601Z,11.17
2022-10-21T09:40:16.292Z,11.20
2022-10-21T09:42:52.523Z,10.60
2022-10-21T09:45:29.390Z,10.77
2022-10-21T09:48:05.712Z,11.07
2022-10-21T09:50:38.911Z,11.23
2022-10-21T09:53:14.586Z,10.63
2022-10-21T09:55:48.796Z,13.83
2022-10-21T09:58:46.003Z,20.13
2022-10-21T10:01:20.424Z,12.60
2022-10-21T10:03:54.664Z,11.90
2022-10-21T10:06:35.745Z,14.07
2022-10-21T10:09:14.007Z,13.33
2022-10-21T10:11:51.243Z,15.13
2022-10-21T10:14:25.434Z,12.13
2022-10-21T10:16:58.995Z,11.90
2022-10-21T10:19:33.332Z,16.90
2022-10-21T10:22:12.965Z,12.83
2022-10-21T10:24:46.257Z,14.27
2022-10-21T10:27:20.748Z,11.40
2022-10-21T10:29:54.722Z,11.37
2022-10-21T10:32:32.015Z,10.93
2022-10-21T10:35:08.647Z,11.03
2022-10-21T10:37:48.805Z,10.83
2022-10-21T10:40:23.505Z,11.40
2022-10-21T10:42:59.263Z,11.23
2022-10-21T10:45:32.270Z,10.70
2022-10-21T10:48:09.400Z,10.87
2022-10-21T10:50:48.070Z,11.67
2022-10-21T10:53:27.543Z,11.17
2022-10-21T10:56:16.726Z,12.13
2022-10-21T10:58:52.364Z,22.07
2022-10-21T11:01:28.193Z,11.33
2022-10-21T11:04:07.352Z,11.93
2022-10-21T11:06:45.103Z,10.70
2022-10-21T11:09:19.536Z,25.70
2022-10-21T11:11:55.757Z,14.10
2022-10-21T11:14:28.558Z,14.23
2022-10-21T11:17:06.365Z,11.77
2022-10-21T11:19:44.535Z,12.20
2022-10-21T11:22:24.852Z,11.13
2022-10-21T11:24:59.786Z,11.60
2022-10-21T11:27:50.169Z,11.07
2022-10-21T11:30:23.865Z,11.40
2022-10-21T11:33:03.941Z,14.47
2022-10-21T11:35:41.663Z,11.63
2022-10-21T11:38:23.831Z,11.43
2022-10-21T11:40:58.669Z,12.63
2022-10-21T11:43:38.760Z,12.83
2022-10-21T11:46:13.589Z,13.00
2022-10-21T11:48:58.442Z,12.00
2022-10-21T11:51:35.672Z,16.70
2022-10-21T11:54:17.695Z,12.43
2022-10-21T11:56:53.366Z,12.70
2022-10-21T11:59:33.175Z,12.10
2022-10-21T12:02:12.434Z,11.70
2022-10-21T12:04:48.621Z,11.93
2022-10-21T12:07:29.048Z,10.83
2022-10-21T12:10:07.316Z,12.43
2022-10-21T12:12:41.963Z,12.40
2022-10-21T12:15:18.000Z,12.13
2022-10-21T12:17:51.175Z,12.07
2022-10-21T12:20:26.394Z,12.70
2022-10-21T12:23:01.300Z,11.83
2022-10-21T12:25:39.828Z,11.27
2022-10-21T12:28:14.957Z,11.73
2022-10-21T12:30:53.611Z,12.30
2022-10-21T12:33:32.774Z,12.27
2022-10-21T12:36:19.925Z,12.67
2022-10-21T12:38:53.434Z,13.50
2022-10-21T12:41:35.037Z,12.73
2022-10-21T12:44:16.992Z,14.07
2022-10-21T12:46:51.432Z,11.40
2022-10-21T12:49:30.600Z,12.40
2022-10-21T12:52:09.463Z,14.97
2022-10-21T12:54:44.479Z,11.93
2022-10-21T12:57:25.230Z,17.53
2022-10-21T13:00:31.361Z,18.40
2022-10-21T13:03:05.224Z,12.23
2022-10-21T13:05:56.829Z,11.83
2022-10-21T13:08:38.851Z,12.17
2022-10-21T13:11:22.776Z,11.30
2022-10-21T13:14:14.198Z,16.93
2022-10-21T13:16:48.570Z,12.63
2022-10-21T13:19:33.150Z,11.17
2022-10-21T13:22:12.070Z,13.70
2022-10-21T13:24:46.310Z,13.53
2022-10-21T13:27:29.410Z,11.37
2022-10-21T13:30:03.105Z,11.13
2022-10-21T13:32:38.006Z,12.87
2022-10-21T13:35:25.761Z,9.90
2022-10-21T13:38:00.528Z,9.50
2022-10-21T13:40:37.613Z,9.67
2022-10-21T13:43:14.515Z,9.90
2022-10-21T13:45:49.292Z,9.87
2022-10-21T13:48:25.571Z,9.73
2022-10-21T13:51:10.248Z,9.43
2022-10-21T13:53:48.645Z,9.77
2022-10-21T13:56:24.882Z,9.70
2022-10-21T13:58:58.095Z,11.77
2022-10-21T14:01:32.153Z,11.27
2022-10-21T14:04:14.141Z,11.50
2022-10-21T14:06:48.594Z,11.10
2022-10-21T14:09:23.653Z,10.40
2022-10-21T14:12:00.120Z,11.57
2022-10-21T14:14:38.105Z,11.07
2022-10-21T14:17:16.670Z,20.17
2022-10-21T14:19:52.275Z,17.37
2022-10-21T14:22:26.021Z,14.63
2022-10-21T14:25:01.808Z,13.07
2022-10-21T14:27:35.565Z,20.47
2022-10-21T14:30:10.394Z,15.23
2022-10-21T14:32:44.842Z,17.67
2022-10-21T14:35:29.423Z,12.73
2022-10-21T14:38:03.382Z,14.47
2022-10-21T14:40:37.944Z,13.60
2022-10-21T14:43:19.921Z,15.47
2022-10-21T14:45:53.800Z,11.63
2022-10-21T14:48:28.615Z,12.00
2022-10-21T14:51:04.008Z,10.60
2022-10-21T14:53:38.435Z,17.40
2022-10-21T14:56:14.767Z,15.57
2022-10-21T14:58:51.619Z,13.43
2022-10-21T15:01:24.839Z,11.17
2022-10-21T15:03:59.778Z,11.43
2022-10-21T15:06:35.379Z,13.00
2022-10-21T15:09:19.606Z,12.50
2022-10-21T15:11:52.485Z,11.40
2022-10-21T15:14:33.940Z,11.47
2022-10-21T15:17:10.993Z,11.87
2022-10-21T15:19:45.773Z,11.97
2022-10-21T15:22:28.471Z,11.63
2022-10-21T15:25:05.666Z,12.27
2022-10-21T15:27:42.397Z,11.60
2022-10-21T15:30:18.932Z,11.93
2022-10-21T15:32:52.893Z,11.03
2022-10-21T15:35:25.850Z,11.47
2022-10-21T15:38:00.924Z,11.50
2022-10-21T15:40:34.044Z,11.50
2022-10-21T15:43:06.753Z,11.67
2022-10-21T15:45:41.631Z,11.77
2022-10-21T15:48:15.079Z,12.00
2022-10-21T15:50:47.966Z,12.17
2022-10-21T15:53:21.983Z,16.40
2022-10-21T15:55:55.042Z,17.97
2022-10-21T15:58:28.090Z,44.50
2022-10-21T16:01:00.730Z,17.87
2022-10-21T16:03:33.637Z,17.60
2022-10-21T16:06:06.447Z,20.93
2022-10-21T16:08:40.269Z,25.43
2022-10-21T16:11:14.319Z,19.97
2022-10-21T16:13:49.520Z,24.57
2022-10-21T16:16:24.723Z,25.57
2022-10-21T16:18:57.428Z,34.73
2022-10-21T16:21:30.331Z,32.77
2022-10-21T16:24:04.535Z,22.00
2022-10-21T16:26:41.382Z,23.30
2022-10-21T16:31:55.277Z,14.93
2022-10-21T16:34:28.213Z,15.87
2022-10-21T16:37:01.010Z,14.13
2022-10-21T16:39:35.686Z,15.63
2022-10-21T16:42:11.289Z,21.73
2022-10-21T16:44:44.756Z,18.40
2022-10-21T16:47:18.247Z,18.50
2022-10-21T16:49:50.994Z,17.67
2022-10-21T16:52:25.499Z,16.70
2022-10-21T16:55:02.382Z,14.67
2022-10-21T16:57:34.938Z,14.70
2022-10-21T17:00:08.216Z,23.10
2022-10-21T17:02:41.031Z,20.13
2022-10-21T17:05:14.366Z,16.70
2022-10-21T17:07:47.073Z,20.07
2022-10-21T17:10:21.133Z,15.90
2022-10-21T17:12:58.846Z,15.40
2022-10-21T17:15:33.794Z,16.00
2022-10-21T17:18:06.658Z,17.33
2022-10-21T17:20:39.320Z,18.07
2022-10-21T17:23:12.687Z,23.67
2022-10-21T17:25:46.706Z,17.17
2022-10-21T17:28:19.361Z,16.67
2022-10-21T17:30:52.722Z,18.27
2022-10-21T17:33:28.387Z,18.27
2022-10-21T17:36:01.027Z,19.73
2022-10-21T17:38:33.899Z,16.50
2022-10-21T17:41:07.863Z,17.57
2022-10-21T17:43:40.602Z,16.63
2022-10-21T17:46:19.330Z,14.93
2022-10-21T17:48:52.011Z,17.67
2022-10-21T17:51:25.415Z,16.67
2022-10-21T17:53:59.414Z,18.57
2022-10-21T17:56:33.329Z,17.53
2022-10-21T17:59:06.359Z,17.07
2022-10-21T18:01:39.117Z,19.30
2022-10-21T18:04:12.311Z,15.47
2022-10-21T18:06:45.165Z,16.10
2022-10-21T18:09:17.911Z,17.40
2022-10-21T18:11:54.622Z,23.50
2022-10-21T18:14:27.383Z,16.30
2022-10-21T18:17:00.024Z,27.93
2022-10-21T18:19:33.852Z,21.17
2022-10-21T18:22:06.636Z,23.07
2022-10-21T18:24:39.357Z,26.07
2022-10-21T18:27:13.469Z,19.10
2022-10-21T18:29:46.199Z,18.37
2022-10-21T18:32:18.777Z,17.73
2022-10-21T18:34:51.691Z,18.33
2022-10-21T18:37:24.336Z,18.70
2022-10-21T18:39:59.134Z,19.03
2022-10-21T18:42:33.314Z,18.10
2022-10-21T18:45:09.434Z,17.50
2022-10-21T18:47:44.014Z,17.83
2022-10-21T18:50:16.821Z,17.13
2022-10-21T18:52:51.889Z,17.33
2022-10-21T18:55:24.404Z,18.70
2022-10-21T18:57:58.358Z,17.37
2022-10-21T19:00:32.876Z,17.40
2022-10-21T19:03:05.809Z,18.17
2022-10-21T19:05:40.146Z,18.03
2022-10-21T19:08:12.668Z,20.93
2022-10-21T19:10:45.353Z,18.03
2022-10-21T19:13:19.543Z,19.80
2022-10-21T19:15:52.126Z,18.47
2022-10-21T19:18:25.449Z,20.07
2022-10-21T19:20:58.096Z,18.97
2022-10-21T19:23:32.409Z,20.07
2022-10-21T19:26:05.532Z,18.70
2022-10-21T19:28:42.719Z,21.47
2022-10-21T19:31:15.833Z,23.63
2022-10-21T19:33:48.453Z,32.43
2022-10-21T19:36:23.388Z,24.07
2022-10-21T19:38:56.016Z,20.33
2022-10-21T19:41:28.808Z,20.53
2022-10-21T19:44:02.882Z,21.03
2022-10-21T19:46:36.103Z,20.13
2022-10-21T19:49:09.884Z,19.33
2022-10-21T19:51:42.648Z,22.87
2022-10-21T19:54:16.336Z,18.27
2022-10-21T19:56:51.370Z,20.10
2022-10-21T19:59:28.110Z,18.27
2022-10-21T20:02:00.686Z,18.93
2022-10-21T20:04:35.355Z,22.23
2022-10-21T20:07:08.769Z,18.27
2022-10-21T20:09:41.786Z,18.73
2022-10-21T20:12:14.440Z,19.17
2022-10-21T20:14:48.473Z,19.60
2022-10-21T20:17:21.183Z,19.40
2022-10-21T20:19:54.573Z,20.00
2022-10-21T20:22:27.431Z,19.83
2022-10-21T20:25:00.088Z,19.73
2022-10-21T20:27:32.754Z,19.50
2022-10-21T20:30:08.575Z,19.20
2022-10-21T20:32:43.052Z,18.07
2022-10-21T20:35:15.827Z,20.80
2022-10-21T20:37:48.623Z,21.67
2022-10-21T20:40:21.367Z,21.20
2022-10-21T20:42:54.116Z,21.33
2022-10-21T20:45:30.121Z,20.40
2022-10-21T20:48:02.936Z,19.47
2022-10-21T20:50:38.745Z,19.57
2022-10-21T20:53:11.478Z,19.33
2022-10-21T20:55:45.016Z,20.73
2022-10-21T20:58:20.606Z,20.50
2022-10-21T21:00:54.783Z,20.27
2022-10-21T21:03:27.373Z,20.73
2022-10-21T21:06:01.642Z,21.27
2022-10-21T21:08:35.120Z,21.63
2022-10-21T21:11:08.913Z,20.03
2022-10-21T21:13:43.519Z,21.00
2022-10-21T21:16:19.166Z,20.87
2022-10-21T21:18:52.646Z,20.37
2022-10-21T21:21:26.477Z,20.37
2022-10-21T21:23:59.648Z,21.13
2022-10-21T21:26:34.239Z,20.17
2022-10-21T21:29:07.558Z,21.80
2022-10-21T21:31:44.776Z,22.17
2022-10-21T21:34:17.501Z,20.67
2022-10-21T21:36:50.179Z,22.20
2022-10-21T21:39:23.366Z,21.57
2022-10-21T21:41:56.203Z,21.33
2022-10-21T21:44:28.965Z,22.10
2022-10-21T21:47:03.077Z,21.60
2022-10-21T21:49:40.468Z,22.07
2022-10-21T21:52:17.474Z,21.00
2022-10-21T21:54:54.331Z,21.87
2022-10-21T21:57:28.324Z,21.73
2022-10-21T22:00:01.323Z,21.83
2022-10-21T22:02:35.591Z,21.13
2022-10-21T22:05:08.580Z,20.90
2022-10-21T22:07:41.668Z,22.30
2022-10-21T22:10:15.549Z,22.97
2022-10-21T22:12:48.353Z,22.03
2022-10-21T22:15:43.227Z,21.20
2022-10-21T22:18:15.263Z,22.73
2022-10-21T22:20:47.977Z,22.47
2022-10-21T22:23:21.164Z,22.30
2022-10-21T22:25:53.832Z,22.20
2022-10-21T22:28:26.861Z,21.70
2022-10-21T22:31:00.386Z,21.17
2022-10-21T22:33:34.981Z,20.93
2022-10-21T22:36:08.329Z,21.70
2022-10-21T22:38:40.888Z,21.97
2022-10-21T22:41:13.971Z,22.27
2022-10-21T22:43:54.133Z,21.50
2022-10-21T22:46:35.132Z,22.17
2022-10-21T22:49:10.524Z,21.20
2022-10-21T22:51:43.391Z,21.27
2022-10-21T22:54:36.095Z,19.60
2022-10-21T22:57:09.172Z,19.70
2022-10-21T22:59:44.050Z,20.73
2022-10-21T23:02:17.815Z,21.23
2022-10-21T23:04:51.936Z,20.77
2022-10-21T23:07:24.544Z,20.37
2022-10-21T23:09:59.678Z,20.00
2022-10-21T23:12:32.293Z,20.30
2022-10-21T23:15:06.659Z,20.07
2022-10-21T23:17:39.329Z,20.27
2022-10-21T23:20:13.677Z,18.90
2022-10-21T23:22:46.280Z,18.63
2022-10-21T23:25:20.219Z,19.33
2022-10-21T23:27:52.762Z,18.77
2022-10-21T23:30:25.421Z,18.60
2022-10-21T23:33:00.506Z,20.90
2022-10-21T23:35:34.688Z,20.90
2022-10-21T23:38:07.664Z,19.80
2022-10-21T23:40:43.006Z,20.57
2022-10-21T23:43:15.590Z,20.27
2022-10-21T23:45:48.916Z,21.23
2022-10-21T23:48:21.530Z,19.57
2022-10-21T23:50:55.461Z,19.63
2022-10-21T23:53:28.215Z,20.03
2022-10-21T23:56:01.070Z,19.97
2022-10-21T23:58:33.923Z,18.33
